Terminal Aerodrome Forecast
Issued by NWS Chicago, IL

Home | Current Version | Previous Version | Graphics & Text | Print | Product List | Glossary On
Versions: 1 2 3 4 5 6 7 8 9 10 11 12 13 14 15 16 17 18 19 20 21 22 23 24 25
000
FTUS43 KLOT 271730
TAFRFD
TAF
KRFD 271730Z 2718/2818 17006KT P6SM BKN025 BKN250
     FM280200 VRB03KT P6SM BKN120
     FM281200 03004KT P6SM VCSH SCT025 BKN050
     FM281500 32008KT 6SM -SHRA BKN025 PROB30 2815/2817 4SM TSRA
      OVC015CB=

USA.gov is the U.S. government's official web portal to all federal, state and local government web resources and services.